Detall de PIREP

Printer-friendly versionPDF version

[2009/05/21 20:54:00]
Flight IATA:CT0001
Pilot Number:011
Company ICAO:CAT
Aircraft Type:F50/A
PAX:50
Departing Airport: LERS
Destination Airport: LEVC
Alternate Airport:LEPA
Online: VATSIM
Route:EBROX B28 SOPET
Flight Level:FL150
No Slew and time accel
No pause
Crash detect
Detect pilot in Cockpit between each 30 and 45 minutes
20:54 Zero fuel Weight: 41686 Lbs, Fuel Weight: 1997 Lbs
20:54 VATSIM:LERS 212030Z VRB02KT 9000 NSC 18/15 Q1013
20:54 VATSIM:LEVC 212030Z 06004KT CAVOK 20/15 Q1013 NOSIG
20:56 Parking Brakes off
21:00 Take-off
21:00 Take off Weight: 43627 Lbs
21:00 Wind: 057 @ 004 Knots Heading: 065
21:00 POS N41 08 51 E001 10 04
21:00 Flaps:3 at 121 Knots
21:00 Gear Up: 121 Knots
21:01 Flaps:2 at 152 Knots
21:01 Flaps:1 at 164 Knots
21:01 Flaps:0 at 172 Knots
21:08 TOC
21:08 Fuel Weight: 1664 Lb
21:15 Wind:055@008 Knots Heading: 224 Groun
d Speed: 280 Knots Altitude 15006 ft
21:21 TOD
21:21 Fuel Weight: 1360 Lb
21:30 Wind:069@009 Knots Heading: 226 Ground Speed: 232 Knots Altitude 5059 ft
21:39 Flaps:1 at 167 Knots
21:39 Flaps:2 at 160 Knots
21:41 Flaps:3 at 151 Knots
21:42 Flaps:4 at 149 Knots
21:43 Flaps:5 at 135 Knots
21:43 Gear Down: 132 Knots
21:44 Flaps:6 at 112 Knots
21:45 Wind:092@003 Knots Heading: 114 Ground Speed: 112 Knots Altitude 1594 ft
21:47 TouchDown:Rate -157 ft/min Speed: 90 Knots
21:47 VATSIM:LEVC 212130Z 09003KT 050V110 CAVOK 20/16 Q1013 NOSIG
21:47 Land
21:47 Wind:103@003 Knots
21:47 Heading: 113
21:47 Flight Duration: 00:47
21:47 Landing Weight: 42671 Lbs
21:47 POS N39 29 18 W000 28 46
21:50 Parking brakes on
21:50 Block to Block Duration: 00:54
21:50 Final Fuel: 963 Lbls
21:50 Spent Fuel: 1033 Lbls
21:50 Flight Length: 111 NM
21:50 TOD Land Lengt
h: 37 NM

Exportar CSV

Powered by Drupal - Modified by Danger4k